createdAt,value
2019-06-20T00:00:44.684Z,0.00
2019-06-20T00:01:44.694Z,0.00
2019-06-20T00:02:44.653Z,0.00
2019-06-20T00:03:44.637Z,0.00
2019-06-20T00:04:44.621Z,0.00
2019-06-20T00:05:44.618Z,0.00
2019-06-20T00:06:44.613Z,0.00
2019-06-20T00:07:44.580Z,0.00
2019-06-20T00:08:44.569Z,0.00
2019-06-20T00:09:44.597Z,0.00
2019-06-20T00:10:44.545Z,0.00
2019-06-20T00:11:44.515Z,0.00
2019-06-20T00:12:59.198Z,0.00
2019-06-20T00:13:44.477Z,0.00
2019-06-20T00:14:44.460Z,0.00
2019-06-20T00:15:44.599Z,0.00
2019-06-20T00:16:44.429Z,0.00
2019-06-20T00:17:44.412Z,0.00
2019-06-20T00:18:44.400Z,0.00
2019-06-20T00:19:44.381Z,0.00
2019-06-20T00:20:44.380Z,0.00
2019-06-20T00:21:44.349Z,0.00
2019-06-20T00:22:44.331Z,0.00
2019-06-20T00:23:44.317Z,0.00
2019-06-20T00:24:44.299Z,0.00
2019-06-20T00:25:44.311Z,0.00
2019-06-20T00:26:44.323Z,0.00
2019-06-20T00:27:44.250Z,0.00
2019-06-20T00:28:44.245Z,0.00
2019-06-20T00:29:44.222Z,0.00
2019-06-20T00:30:44.222Z,0.00
2019-06-20T00:31:44.200Z,0.00
2019-06-20T00:32:44.172Z,0.00
2019-06-20T00:33:44.156Z,0.00
2019-06-20T00:34:44.140Z,0.00
2019-06-20T00:35:44.124Z,0.00
2019-06-20T00:36:44.139Z,0.00
2019-06-20T00:37:44.093Z,0.00
2019-06-20T00:38:44.076Z,0.00
2019-06-20T00:39:44.065Z,0.00
2019-06-20T00:40:44.048Z,0.00
2019-06-20T00:41:44.042Z,0.00
2019-06-20T00:42:44.010Z,0.00
2019-06-20T00:43:43.999Z,0.00
2019-06-20T00:44:44.035Z,0.00
2019-06-20T00:45:43.970Z,0.00
2019-06-20T00:46:43.959Z,0.00
2019-06-20T00:47:43.933Z,0.00
2019-06-20T00:48:43.917Z,0.00
2019-06-20T00:49:43.904Z,0.00
2019-06-20T00:50:43.894Z,0.00
2019-06-20T00:51:43.881Z,0.00
2019-06-20T00:52:43.855Z,0.00
2019-06-20T00:53:43.846Z,0.00
2019-06-20T00:54:43.831Z,0.00
2019-06-20T00:55:43.806Z,0.00
2019-06-20T00:56:43.807Z,0.00
2019-06-20T00:57:43.770Z,0.00
2019-06-20T00:58:43.754Z,0.00
2019-06-20T00:59:43.740Z,0.00
2019-06-20T01:00:43.723Z,0.00
2019-06-20T01:01:43.716Z,0.00
2019-06-20T01:02:43.704Z,0.00
2019-06-20T01:03:43.676Z,0.00
2019-06-20T01:04:43.663Z,0.00
2019-06-20T01:05:43.644Z,0.00
2019-06-20T01:06:43.642Z,0.00
2019-06-20T01:07:43.614Z,0.00
2019-06-20T01:08:43.595Z,0.00
2019-06-20T01:09:43.582Z,0.00
2019-06-20T01:10:43.564Z,0.00
2019-06-20T01:11:43.562Z,0.00
2019-06-20T01:12:43.532Z,0.00
2019-06-20T01:13:43.519Z,0.00
2019-06-20T01:14:43.504Z,0.00
2019-06-20T01:15:43.485Z,0.00
2019-06-20T01:16:43.606Z,0.00
2019-06-20T05:28:13.374Z,6748.00
2019-06-20T05:29:13.337Z,7096.00
2019-06-20T05:30:13.308Z,7292.00
2019-06-20T05:31:13.304Z,7028.00
2019-06-20T05:32:13.270Z,6660.00
2019-06-20T05:33:13.253Z,6372.00
2019-06-20T05:34:13.238Z,6184.00
2019-06-20T05:35:13.224Z,5660.00
2019-06-20T05:36:13.203Z,5272.00
2019-06-20T05:37:13.208Z,4856.00
2019-06-20T05:38:13.183Z,4832.00
2019-06-20T05:39:13.155Z,4968.00
2019-06-20T05:40:13.140Z,4916.00
2019-06-20T05:41:13.198Z,4848.00
2019-06-20T05:42:13.123Z,5176.00
2019-06-20T05:43:13.093Z,5344.00
2019-06-20T05:44:13.084Z,5080.00
2019-06-20T05:45:13.064Z,4524.00
2019-06-20T05:46:13.051Z,4148.00
2019-06-20T05:47:14.081Z,3980.00
2019-06-20T06:47:13.115Z,5052.00
2019-06-20T06:48:13.098Z,5492.00
2019-06-20T06:49:13.082Z,5916.00
2019-06-20T06:50:13.049Z,6276.00
2019-06-20T06:51:13.031Z,6924.00
2019-06-20T06:52:13.017Z,8088.00
2019-06-20T06:53:12.996Z,9132.00
2019-06-20T06:54:13.033Z,9904.00
2019-06-20T06:55:12.968Z,10516.00
2019-06-20T06:56:12.952Z,10840.00
2019-06-20T06:57:12.961Z,11032.00
2019-06-20T06:58:12.919Z,11400.00
2019-06-20T06:59:12.953Z,11876.00
2019-06-20T07:00:12.900Z,12468.00
2019-06-20T07:01:12.901Z,12588.00
2019-06-20T07:02:12.857Z,12628.00
2019-06-20T07:03:12.841Z,13104.00
2019-06-20T07:04:12.825Z,13412.00
2019-06-20T07:05:12.825Z,13924.00
2019-06-20T07:06:12.797Z,14012.00
2019-06-20T07:07:12.802Z,14576.00
2019-06-20T07:08:12.766Z,13672.00
2019-06-20T07:09:12.756Z,13352.00
2019-06-20T07:10:12.767Z,12588.00
2019-06-20T07:11:12.726Z,11372.00
2019-06-20T07:12:12.713Z,11128.00
2019-06-20T07:13:12.700Z,10804.00
2019-06-20T07:14:12.685Z,10896.00
2019-06-20T07:15:12.745Z,11700.00
2019-06-20T07:16:12.658Z,12204.00
2019-06-20T07:17:12.646Z,11972.00
2019-06-20T07:18:12.633Z,11888.00
2019-06-20T07:19:12.669Z,11696.00
2019-06-20T07:20:15.183Z,11440.00
2019-06-20T07:21:12.594Z,11116.00
2019-06-20T07:22:12.581Z,10932.00
2019-06-20T07:23:12.584Z,10840.00
2019-06-20T07:24:12.557Z,11040.00
2019-06-20T07:25:12.538Z,11460.00
2019-06-20T07:26:12.546Z,12264.00
2019-06-20T07:27:12.521Z,12904.00
2019-06-20T07:28:12.516Z,12572.00
2019-06-20T07:29:12.491Z,12784.00
2019-06-20T07:30:12.481Z,12340.00
2019-06-20T07:31:12.481Z,12164.00
2019-06-20T07:32:12.456Z,11392.00
2019-06-20T07:33:12.484Z,10524.00
2019-06-20T07:34:12.432Z,9740.00
2019-06-20T07:35:12.420Z,10448.00
2019-06-20T07:36:12.430Z,9248.00
2019-06-20T07:37:12.408Z,8540.00
2019-06-20T07:38:12.382Z,7992.00
2019-06-20T07:39:12.369Z,7968.00
2019-06-20T07:40:12.357Z,8756.00
2019-06-20T07:41:12.359Z,7532.00
2019-06-20T07:42:12.333Z,7164.00
2019-06-20T07:43:12.321Z,6976.00
2019-06-20T07:44:12.310Z,6856.00
2019-06-20T07:45:12.298Z,7012.00
2019-06-20T07:46:12.328Z,6552.00
2019-06-20T07:47:17.583Z,6300.00
2019-06-20T07:48:12.256Z,6176.00
2019-06-20T07:49:12.269Z,5572.00
2019-06-20T07:50:12.234Z,5688.00
2019-06-20T07:51:12.235Z,5484.00
2019-06-20T07:52:12.206Z,5264.00
2019-06-20T07:53:12.196Z,5272.00
2019-06-20T07:54:12.183Z,6204.00
2019-06-20T07:55:12.176Z,7840.00
2019-06-20T07:56:12.169Z,8024.00
2019-06-20T07:57:12.146Z,8440.00
2019-06-20T07:58:12.130Z,10388.00
2019-06-20T07:59:12.130Z,10940.00
2019-06-20T08:00:12.113Z,9968.00
2019-06-20T08:01:12.107Z,9708.00
2019-06-20T08:02:12.079Z,9344.00
2019-06-20T08:03:12.065Z,9544.00
2019-06-20T08:04:12.053Z,9488.00
2019-06-20T08:05:12.047Z,9808.00
2019-06-20T08:06:12.039Z,10208.00
2019-06-20T08:07:12.016Z,10220.00
2019-06-20T08:08:12.048Z,9808.00
2019-06-20T08:09:11.990Z,10060.00
2019-06-20T08:10:11.999Z,11204.00
2019-06-20T08:11:11.977Z,10928.00
2019-06-20T08:12:11.956Z,9888.00
2019-06-20T08:13:12.095Z,9772.00
2019-06-20T08:14:11.924Z,10164.00
2019-06-20T08:15:15.445Z,9940.00
2019-06-20T08:16:11.918Z,9436.00
2019-06-20T08:17:11.888Z,9332.00
2019-06-20T08:18:11.893Z,9504.00
2019-06-20T08:19:11.863Z,9172.00
2019-06-20T08:20:11.938Z,9296.00
2019-06-20T08:21:11.839Z,8932.00
2019-06-20T08:22:11.845Z,7824.00
2019-06-20T08:23:11.815Z,7388.00
2019-06-20T08:24:11.804Z,7324.00
2019-06-20T08:25:11.799Z,7440.00
2019-06-20T08:26:11.776Z,7836.00
2019-06-20T08:27:14.778Z,8452.00
2019-06-20T08:28:11.755Z,9732.00
2019-06-20T08:29:20.631Z,10092.00
2019-06-20T08:30:11.729Z,11136.00
2019-06-20T08:31:11.719Z,11864.00
2019-06-20T08:32:11.724Z,10924.00
2019-06-20T08:33:12.383Z,11088.00
2019-06-20T08:34:11.683Z,12380.00
2019-06-20T08:35:11.670Z,12924.00
2019-06-20T08:36:11.670Z,12732.00
2019-06-20T08:37:11.647Z,12564.00
2019-06-20T08:38:11.644Z,12260.00
2019-06-20T08:39:11.619Z,12900.00
2019-06-20T08:40:11.605Z,13704.00
2019-06-20T08:41:11.595Z,13204.00
2019-06-20T08:42:11.592Z,12992.00
2019-06-20T08:43:11.585Z,13228.00
2019-06-20T08:44:11.560Z,12896.00
2019-06-20T08:45:11.547Z,12184.00
2019-06-20T08:46:11.537Z,12300.00
2019-06-20T08:47:11.523Z,11348.00
2019-06-20T08:48:11.526Z,11140.00
2019-06-20T08:49:11.502Z,10464.00
2019-06-20T08:50:11.497Z,10052.00
2019-06-20T08:51:14.482Z,9552.00
2019-06-20T08:52:11.466Z,8944.00
2019-06-20T08:53:11.473Z,8448.00
2019-06-20T08:54:11.441Z,8952.00
2019-06-20T08:55:11.429Z,9576.00
2019-06-20T08:56:11.419Z,9336.00
2019-06-20T08:57:11.414Z,9348.00
2019-06-20T08:58:11.407Z,9084.00
2019-06-20T08:59:23.898Z,8892.00
2019-06-20T09:00:11.370Z,9348.00
2019-06-20T09:01:11.365Z,8980.00
2019-06-20T09:02:11.346Z,8240.00
2019-06-20T09:03:11.349Z,8072.00
2019-06-20T09:04:11.323Z,7896.00
2019-06-20T09:05:11.313Z,7556.00
2019-06-20T09:06:11.298Z,7396.00
2019-06-20T09:07:11.299Z,7760.00
2019-06-20T09:08:11.999Z,7536.00
2019-06-20T09:09:11.267Z,7824.00
2019-06-20T09:10:11.253Z,8516.00
2019-06-20T09:11:11.239Z,9476.00
2019-06-20T09:12:11.227Z,10516.00
2019-06-20T09:13:11.227Z,10204.00
2019-06-20T09:14:11.202Z,10156.00
2019-06-20T09:15:11.190Z,9912.00
2019-06-20T09:16:23.985Z,9560.00
2019-06-20T09:17:11.166Z,9684.00
2019-06-20T09:18:11.168Z,10068.00
2019-06-20T09:19:11.149Z,10292.00
2019-06-20T09:20:11.140Z,11056.00
2019-06-20T09:21:11.134Z,11352.00
2019-06-20T09:22:11.105Z,11536.00
2019-06-20T09:23:11.162Z,11848.00
2019-06-20T09:24:11.082Z,12552.00
2019-06-20T09:25:11.069Z,12168.00
2019-06-20T09:26:11.058Z,12244.00
2019-06-20T09:27:11.045Z,11528.00
2019-06-20T09:28:11.033Z,10608.00
2019-06-20T09:29:11.041Z,10588.00
2019-06-20T09:30:11.013Z,11400.00
2019-06-20T09:31:10.999Z,12572.00
2019-06-20T09:32:10.987Z,13324.00
2019-06-20T09:33:10.989Z,13624.00
2019-06-20T09:34:10.979Z,13700.00
2019-06-20T09:35:10.952Z,14356.00
2019-06-20T09:36:10.944Z,14600.00
2019-06-20T09:37:10.930Z,14660.00
2019-06-20T09:38:10.921Z,14148.00
2019-06-20T09:39:10.921Z,13612.00
2019-06-20T09:40:10.897Z,13548.00
2019-06-20T09:41:10.881Z,13648.00
2019-06-20T09:42:10.873Z,13364.00
2019-06-20T09:43:10.858Z,12876.00
2019-06-20T09:44:10.868Z,13904.00
2019-06-20T09:45:10.835Z,15960.00
2019-06-20T09:46:10.827Z,17728.00
2019-06-20T09:47:10.814Z,18528.00
2019-06-20T09:48:10.802Z,18880.00
2019-06-20T09:49:10.800Z,17824.00
2019-06-20T09:50:10.778Z,16384.00
2019-06-20T09:51:10.766Z,15208.00
2019-06-20T09:52:10.789Z,15832.00
2019-06-20T09:53:10.742Z,15256.00
2019-06-20T09:54:10.748Z,13888.00
2019-06-20T09:55:10.726Z,13424.00
2019-06-20T09:56:10.731Z,14388.00
2019-06-20T09:57:10.698Z,16896.00
2019-06-20T09:58:10.701Z,18560.00
2019-06-20T09:59:26.647Z,19328.00
2019-06-20T10:00:11.044Z,18944.00
2019-06-20T10:01:10.653Z,18688.00
2019-06-20T10:02:10.642Z,17984.00
2019-06-20T10:03:10.631Z,17280.00
2019-06-20T10:04:10.636Z,16212.00
2019-06-20T10:05:10.696Z,15100.00
2019-06-20T10:06:13.877Z,14772.00
2019-06-20T10:07:10.600Z,14964.00
2019-06-20T10:08:10.570Z,15140.00
2019-06-20T10:09:10.602Z,14796.00
2019-06-20T10:10:10.588Z,14200.00
2019-06-20T10:11:10.538Z,13784.00
2019-06-20T10:12:10.525Z,13184.00
2019-06-20T10:13:10.517Z,13052.00
2019-06-20T10:14:10.515Z,13324.00
2019-06-20T10:15:10.507Z,11644.00
2019-06-20T10:16:10.483Z,10248.00
2019-06-20T10:17:10.470Z,9424.00
2019-06-20T10:18:10.459Z,9272.00
2019-06-20T10:19:12.679Z,9488.00
2019-06-20T10:20:10.450Z,10116.00
2019-06-20T10:21:10.424Z,11120.00
2019-06-20T10:22:10.416Z,11404.00
2019-06-20T10:23:10.402Z,11352.00
2019-06-20T10:24:10.389Z,10740.00
2019-06-20T10:25:10.391Z,9276.00
2019-06-20T10:26:10.368Z,7688.00
2019-06-20T10:27:10.354Z,6472.00
2019-06-20T10:28:10.343Z,5892.00
2019-06-20T10:29:10.332Z,5464.00
2019-06-20T10:30:14.203Z,5460.00
2019-06-20T10:31:10.308Z,6208.00
2019-06-20T10:32:10.296Z,7512.00
2019-06-20T10:33:10.282Z,9388.00
2019-06-20T10:34:10.277Z,11840.00
2019-06-20T10:35:10.279Z,14948.00
2019-06-20T10:36:10.246Z,16632.00
2019-06-20T10:37:10.237Z,16400.00
2019-06-20T10:38:10.229Z,16608.00
2019-06-20T10:39:10.216Z,17600.00
2019-06-20T10:40:10.223Z,17568.00
2019-06-20T10:41:10.186Z,16672.00
2019-06-20T10:42:10.176Z,16188.00
2019-06-20T10:43:10.164Z,16188.00
2019-06-20T10:44:10.149Z,16456.00
2019-06-20T10:45:10.168Z,16704.00
2019-06-20T10:46:10.126Z,16608.00
2019-06-20T10:47:10.258Z,16448.00
2019-06-20T10:48:10.103Z,16544.00
2019-06-20T10:49:10.096Z,16640.00
2019-06-20T10:50:10.088Z,16864.00
2019-06-20T10:51:10.084Z,17088.00
2019-06-20T10:52:10.057Z,17408.00
2019-06-20T10:53:10.081Z,18272.00
2019-06-20T10:54:10.034Z,19040.00
2019-06-20T10:55:10.042Z,19232.00
2019-06-20T10:56:10.029Z,19392.00
2019-06-20T10:57:09.997Z,20512.00
2019-06-20T10:58:09.987Z,20672.00
2019-06-20T10:59:09.976Z,20480.00
2019-06-20T11:00:09.966Z,18688.00
2019-06-20T11:01:09.967Z,16628.00
2019-06-20T11:02:09.946Z,16080.00
2019-06-20T11:03:09.943Z,16068.00
2019-06-20T11:04:09.927Z,15968.00
2019-06-20T11:05:09.912Z,16224.00
2019-06-20T11:06:09.917Z,16340.00
2019-06-20T11:07:09.889Z,15668.00
2019-06-20T11:08:09.879Z,14472.00
2019-06-20T11:09:09.871Z,13496.00
2019-06-20T11:10:09.859Z,12716.00
2019-06-20T11:11:09.860Z,12704.00
2019-06-20T11:12:09.834Z,13124.00
2019-06-20T11:13:09.823Z,12852.00
2019-06-20T11:14:09.812Z,12328.00
2019-06-20T11:15:09.805Z,11924.00
2019-06-20T11:16:09.808Z,11572.00
2019-06-20T11:17:09.785Z,11056.00
2019-06-20T11:18:09.770Z,10852.00
2019-06-20T11:19:09.759Z,11212.00
2019-06-20T11:20:09.747Z,11868.00
2019-06-20T11:21:09.735Z,12476.00
2019-06-20T11:22:09.740Z,14304.00
2019-06-20T11:23:09.714Z,17408.00
2019-06-20T11:24:09.708Z,20192.00
2019-06-20T11:25:09.693Z,22464.00
2019-06-20T11:26:09.686Z,24064.00
2019-06-20T11:27:09.684Z,24832.00
2019-06-20T11:28:09.665Z,26432.00
2019-06-20T11:29:09.647Z,26624.00
2019-06-20T11:30:09.639Z,25568.00
2019-06-20T11:31:09.627Z,24480.00
2019-06-20T11:32:09.628Z,24032.00
2019-06-20T11:33:09.604Z,23552.00
2019-06-20T11:34:09.613Z,22752.00
2019-06-20T11:35:09.589Z,22176.00
2019-06-20T11:36:09.573Z,21568.00
2019-06-20T11:37:09.578Z,21024.00
2019-06-20T11:38:09.553Z,20000.00
2019-06-20T11:39:09.548Z,18720.00
2019-06-20T11:40:09.533Z,18752.00
2019-06-20T11:41:09.557Z,19392.00
2019-06-20T11:42:09.520Z,18912.00
2019-06-20T11:43:09.508Z,18176.00
2019-06-20T11:44:09.489Z,16928.00
2019-06-20T11:45:09.485Z,15552.00
2019-06-20T11:46:09.471Z,13196.00
2019-06-20T11:47:09.475Z,11704.00
2019-06-20T11:48:09.449Z,10560.00
2019-06-20T11:49:09.440Z,9740.00
2019-06-20T11:50:09.428Z,9624.00
2019-06-20T11:51:09.419Z,8992.00
2019-06-20T11:52:09.438Z,8408.00
2019-06-20T11:53:09.398Z,7896.00
2019-06-20T11:54:09.386Z,7404.00
2019-06-20T11:55:09.379Z,6908.00
2019-06-20T11:56:09.459Z,6648.00
2019-06-20T11:57:09.375Z,6696.00
2019-06-20T11:58:09.347Z,6848.00
2019-06-20T11:59:09.338Z,6804.00
2019-06-20T12:00:09.323Z,6512.00
2019-06-20T12:01:09.314Z,6320.00
2019-06-20T12:02:09.319Z,6460.00
2019-06-20T12:03:09.290Z,6532.00
2019-06-20T12:04:09.549Z,6636.00
2019-06-20T12:05:09.270Z,6892.00
2019-06-20T12:06:09.274Z,7356.00
2019-06-20T12:07:09.298Z,7672.00
2019-06-20T12:08:09.321Z,7920.00
2019-06-20T12:09:09.228Z,7428.00
2019-06-20T12:10:09.213Z,6188.00
2019-06-20T12:11:09.202Z,5288.00
2019-06-20T12:12:09.212Z,4844.00
2019-06-20T12:13:09.188Z,4852.00
2019-06-20T12:14:09.173Z,5508.00
2019-06-20T12:15:09.157Z,6712.00
2019-06-20T12:16:09.146Z,8548.00
2019-06-20T12:17:09.146Z,10932.00
2019-06-20T12:18:09.125Z,13420.00
2019-06-20T12:19:09.109Z,16156.00
2019-06-20T12:20:09.099Z,17408.00
2019-06-20T12:21:09.087Z,17504.00
2019-06-20T12:22:09.085Z,17056.00
2019-06-20T12:23:09.060Z,17440.00
2019-06-20T12:24:09.047Z,19328.00
2019-06-20T12:25:09.037Z,22912.00
2019-06-20T12:26:09.041Z,26272.00
2019-06-20T12:27:09.027Z,28288.00
2019-06-20T12:28:09.015Z,29600.00
2019-06-20T12:29:08.987Z,30880.00
2019-06-20T12:30:08.977Z,30560.00
2019-06-20T12:31:19.047Z,27936.00
2019-06-20T12:32:10.062Z,25216.00
2019-06-20T12:33:08.935Z,23808.00
2019-06-20T12:34:08.923Z,23424.00
2019-06-20T12:35:08.914Z,23488.00
2019-06-20T12:36:08.903Z,23584.00
2019-06-20T12:37:08.885Z,24352.00
2019-06-20T12:38:08.909Z,24512.00
2019-06-20T12:39:08.867Z,23712.00
2019-06-20T12:40:08.845Z,23968.00
2019-06-20T12:41:08.838Z,25440.00
2019-06-20T12:42:08.822Z,25888.00
2019-06-20T12:43:08.836Z,24448.00
2019-06-20T12:44:08.808Z,22432.00
2019-06-20T12:45:08.787Z,20544.00
2019-06-20T12:46:08.773Z,18816.00
2019-06-20T12:47:08.769Z,17152.00
2019-06-20T12:48:08.828Z,15484.00
2019-06-20T12:49:08.739Z,13836.00
2019-06-20T12:50:08.723Z,12880.00
2019-06-20T12:51:08.712Z,12824.00
2019-06-20T12:52:08.700Z,13220.00
2019-06-20T12:53:08.701Z,13672.00
2019-06-20T12:54:08.674Z,14536.00
2019-06-20T12:55:08.665Z,15460.00
2019-06-20T12:56:08.655Z,16284.00
2019-06-20T12:57:08.640Z,17216.00
2019-06-20T12:58:08.649Z,17920.00
2019-06-20T12:59:08.620Z,18560.00
2019-06-20T13:00:08.605Z,19360.00
2019-06-20T13:01:08.608Z,19072.00
2019-06-20T13:02:08.578Z,18016.00
2019-06-20T13:03:08.587Z,16240.00
2019-06-20T13:04:08.559Z,14684.00
2019-06-20T13:05:08.543Z,13828.00
2019-06-20T13:06:08.531Z,13588.00
2019-06-20T13:07:08.517Z,13940.00
2019-06-20T13:08:08.520Z,14800.00
2019-06-20T13:09:08.499Z,15800.00
2019-06-20T13:10:08.488Z,16992.00
2019-06-20T13:11:08.478Z,18016.00
2019-06-20T13:12:08.460Z,18656.00
2019-06-20T13:13:08.466Z,18784.00
2019-06-20T13:14:08.443Z,18720.00
2019-06-20T13:15:08.420Z,18240.00
2019-06-20T13:16:08.431Z,17440.00
2019-06-20T13:17:08.397Z,16400.00
2019-06-20T13:18:08.392Z,15324.00
2019-06-20T13:19:08.388Z,14184.00
2019-06-20T13:20:08.361Z,13048.00
2019-06-20T13:21:08.384Z,11884.00
2019-06-20T13:22:08.340Z,10148.00
2019-06-20T13:23:08.330Z,7728.00
2019-06-20T13:24:08.342Z,6424.00
2019-06-20T13:25:08.311Z,4912.00
2019-06-20T13:26:08.287Z,3332.00
2019-06-20T13:27:08.286Z,2876.00
2019-06-20T13:28:08.263Z,3632.00
2019-06-20T13:29:08.299Z,4376.00
2019-06-20T13:30:08.270Z,4844.00
2019-06-20T13:31:08.239Z,5276.00
2019-06-20T13:32:08.217Z,6172.00
2019-06-20T13:33:08.202Z,7328.00
2019-06-20T13:34:08.209Z,7532.00
2019-06-20T13:35:08.184Z,5732.00
2019-06-20T13:36:08.178Z,4468.00
2019-06-20T13:37:08.166Z,3692.00
2019-06-20T13:38:08.140Z,3004.00
2019-06-20T13:39:08.141Z,3204.00
2019-06-20T13:40:08.118Z,4896.00
2019-06-20T13:41:08.101Z,7412.00
2019-06-20T13:42:08.092Z,8636.00
2019-06-20T13:43:08.078Z,9580.00
2019-06-20T13:44:08.076Z,10276.00
2019-06-20T13:45:08.051Z,10824.00
2019-06-20T13:46:08.037Z,11608.00
2019-06-20T13:47:08.023Z,12320.00
2019-06-20T13:48:08.007Z,12908.00
2019-06-20T13:49:08.008Z,13412.00
2019-06-20T13:50:07.984Z,14132.00
2019-06-20T13:51:07.968Z,15064.00
2019-06-20T13:52:07.980Z,16152.00
2019-06-20T13:53:07.940Z,17312.00
2019-06-20T13:54:07.948Z,18240.00
2019-06-20T13:55:07.916Z,18944.00
2019-06-20T13:56:07.900Z,19872.00
2019-06-20T13:57:07.887Z,20992.00
2019-06-20T13:58:07.874Z,21888.00
2019-06-20T13:59:10.127Z,22528.00
2019-06-20T14:00:07.844Z,22688.00
2019-06-20T14:01:07.831Z,22368.00
2019-06-20T14:02:07.821Z,22016.00
2019-06-20T14:03:07.807Z,22144.00
2019-06-20T14:04:07.807Z,22976.00
2019-06-20T14:05:07.778Z,24640.00
2019-06-20T14:06:07.769Z,37472.00
2019-06-20T14:07:07.752Z,30144.00
2019-06-20T14:08:07.737Z,27712.00
2019-06-20T14:09:07.749Z,27680.00
2019-06-20T14:10:07.745Z,27296.00
2019-06-20T14:11:07.697Z,25472.00
2019-06-20T14:12:07.684Z,22464.00
2019-06-20T14:13:18.771Z,19904.00
2019-06-20T14:14:07.670Z,18272.00
2019-06-20T14:15:07.655Z,19264.00
2019-06-20T14:16:07.630Z,19904.00
2019-06-20T14:17:07.618Z,18688.00
2019-06-20T14:18:07.605Z,16376.00
2019-06-20T14:19:07.597Z,14284.00
2019-06-20T14:20:08.356Z,12004.00
2019-06-20T14:21:07.562Z,10064.00
2019-06-20T14:22:07.573Z,8896.00
2019-06-20T14:23:07.544Z,8172.00
2019-06-20T14:24:07.525Z,7920.00
2019-06-20T14:25:07.537Z,8056.00
2019-06-20T14:26:07.514Z,8976.00
2019-06-20T14:27:07.485Z,11068.00
2019-06-20T14:28:07.475Z,13424.00
2019-06-20T14:29:07.468Z,14948.00
2019-06-20T14:30:07.460Z,15112.00
2019-06-20T14:31:07.433Z,15412.00
2019-06-20T14:32:21.494Z,15584.00
2019-06-20T14:33:07.406Z,15296.00
2019-06-20T14:34:07.423Z,15416.00
2019-06-20T14:35:07.415Z,15796.00
2019-06-20T14:36:07.363Z,16076.00
2019-06-20T14:37:07.353Z,15188.00
2019-06-20T14:38:07.338Z,13728.00
2019-06-20T14:39:07.330Z,12556.00
2019-06-20T14:40:07.346Z,10688.00
2019-06-20T14:41:07.328Z,9012.00
2019-06-20T14:42:07.286Z,7724.00
2019-06-20T14:43:07.274Z,6260.00
2019-06-20T14:44:07.259Z,5176.00
2019-06-20T14:45:07.261Z,4396.00
2019-06-20T14:46:07.245Z,3948.00
2019-06-20T14:47:07.218Z,3736.00
2019-06-20T14:48:07.212Z,3764.00
2019-06-20T14:49:07.192Z,3988.00
2019-06-20T14:50:07.194Z,4356.00
2019-06-20T14:51:07.164Z,4984.00
2019-06-20T14:52:07.153Z,5984.00
2019-06-20T14:53:07.219Z,7224.00
2019-06-20T14:54:07.133Z,8180.00
2019-06-20T14:55:07.159Z,8368.00
2019-06-20T14:56:07.097Z,8384.00
2019-06-20T14:57:07.084Z,9640.00
2019-06-20T14:58:07.086Z,11076.00
2019-06-20T14:59:07.055Z,11240.00
2019-06-20T15:00:07.042Z,11500.00
2019-06-20T15:01:07.039Z,12156.00
2019-06-20T15:02:07.017Z,11844.00
2019-06-20T15:03:07.001Z,10316.00
2019-06-20T15:04:06.988Z,8992.00
2019-06-20T15:05:06.991Z,7532.00
2019-06-20T15:06:06.955Z,6448.00
2019-06-20T15:07:06.942Z,5908.00
2019-06-20T15:08:06.935Z,5720.00
2019-06-20T15:09:06.916Z,5556.00
2019-06-20T15:10:06.917Z,5576.00
2019-06-20T15:11:06.888Z,5908.00
2019-06-20T15:12:06.874Z,6592.00
2019-06-20T15:13:06.861Z,7648.00
2019-06-20T15:14:06.848Z,9892.00
2019-06-20T15:15:06.859Z,13060.00
2019-06-20T15:16:06.824Z,17312.00
2019-06-20T15:17:06.803Z,19680.00
2019-06-20T15:18:06.791Z,17536.00
2019-06-20T15:19:06.777Z,14148.00
2019-06-20T15:20:06.795Z,11100.00
2019-06-20T15:21:06.754Z,9328.00
2019-06-20T15:22:06.762Z,8112.00
2019-06-20T15:23:06.728Z,6976.00
2019-06-20T15:24:06.730Z,5952.00
2019-06-20T15:25:06.738Z,5256.00
2019-06-20T15:26:06.693Z,4260.00
2019-06-20T15:27:06.670Z,3024.00
2019-06-20T15:28:06.652Z,2116.00
2019-06-20T15:29:06.639Z,1608.00
2019-06-20T15:30:06.627Z,1292.00
2019-06-20T15:31:06.626Z,1028.00
2019-06-20T15:32:06.600Z,1128.00
2019-06-20T15:33:10.281Z,1172.00
2019-06-20T15:34:06.581Z,1704.00
2019-06-20T15:35:06.570Z,2832.00
2019-06-20T15:36:06.560Z,3664.00
2019-06-20T15:37:06.559Z,4020.00
2019-06-20T15:38:06.529Z,4076.00
2019-06-20T15:39:06.509Z,4420.00
2019-06-20T15:40:06.487Z,4540.00
2019-06-20T15:41:06.494Z,4784.00
2019-06-20T15:42:06.492Z,5240.00
2019-06-20T15:43:06.450Z,5708.00
2019-06-20T15:44:06.433Z,6288.00
2019-06-20T15:45:06.422Z,6956.00
2019-06-20T15:46:06.421Z,7692.00
2019-06-20T15:47:06.392Z,8772.00
2019-06-20T15:48:06.369Z,9632.00
2019-06-20T15:49:15.726Z,9300.00
2019-06-20T15:50:06.346Z,8712.00
2019-06-20T15:51:06.367Z,8492.00
2019-06-20T15:52:06.311Z,8612.00
2019-06-20T15:53:06.298Z,9612.00
2019-06-20T15:54:06.298Z,11644.00
2019-06-20T15:55:06.267Z,12936.00
2019-06-20T15:56:06.269Z,11972.00
2019-06-20T15:57:06.237Z,10796.00
2019-06-20T15:58:06.233Z,9976.00
2019-06-20T15:59:06.220Z,9508.00
2019-06-20T16:00:06.194Z,9544.00
2019-06-20T16:01:06.216Z,9860.00
2019-06-20T16:02:06.172Z,11204.00
2019-06-20T16:03:10.261Z,13244.00
2019-06-20T16:04:06.139Z,14116.00
2019-06-20T16:05:06.127Z,13456.00
2019-06-20T16:06:06.147Z,13320.00
2019-06-20T16:07:06.112Z,12872.00
2019-06-20T16:08:06.083Z,11540.00
2019-06-20T16:09:08.567Z,10616.00
2019-06-20T16:10:06.056Z,11264.00
2019-06-20T16:11:06.032Z,13264.00
2019-06-20T16:12:06.032Z,14648.00
2019-06-20T16:13:06.007Z,15564.00
2019-06-20T16:14:05.991Z,15892.00
2019-06-20T16:15:06.002Z,14896.00
2019-06-20T16:16:06.000Z,13344.00
2019-06-20T16:17:05.961Z,12176.00
2019-06-20T16:18:05.931Z,11772.00
2019-06-20T16:19:05.920Z,10660.00
2019-06-20T16:20:05.904Z,9316.00
2019-06-20T16:21:05.890Z,8036.00
2019-06-20T16:22:05.891Z,7236.00
2019-06-20T16:23:05.861Z,6704.00
2019-06-20T16:24:05.847Z,6504.00
2019-06-20T16:36:06.542Z,9724.00
2019-06-20T16:37:10.066Z,9936.00
2019-06-20T16:38:06.481Z,10116.00
2019-06-20T16:39:06.474Z,10236.00
2019-06-20T16:40:06.455Z,10196.00
2019-06-20T16:41:06.434Z,9964.00
2019-06-20T16:42:06.432Z,9704.00
2019-06-20T16:43:06.402Z,9444.00
2019-06-20T16:44:06.389Z,9600.00
2019-06-20T16:45:06.389Z,10004.00
2019-06-20T16:46:06.358Z,10316.00
2019-06-20T16:47:06.357Z,10424.00
2019-06-20T16:48:06.328Z,10368.00
2019-06-20T16:49:06.357Z,10112.00
2019-06-20T16:50:06.312Z,10392.00
2019-06-20T16:51:06.286Z,10568.00
2019-06-20T16:52:06.287Z,10128.00
2019-06-20T16:53:06.269Z,10172.00
2019-06-20T16:54:06.240Z,10420.00
2019-06-20T16:55:06.227Z,11004.00
2019-06-20T16:56:06.221Z,11816.00
2019-06-20T16:57:06.213Z,12184.00
2019-06-20T16:58:06.183Z,11908.00
2019-06-20T16:59:06.170Z,10920.00
2019-06-20T17:00:06.157Z,9940.00
2019-06-20T17:01:06.140Z,9360.00
2019-06-20T17:02:06.159Z,11636.00
2019-06-20T17:03:06.118Z,23168.00
2019-06-20T17:04:06.108Z,26976.00
2019-06-20T17:05:06.083Z,13480.00
2019-06-20T17:06:06.068Z,14332.00
2019-06-20T17:07:06.071Z,12960.00
2019-06-20T17:08:06.045Z,12956.00
2019-06-20T17:09:06.032Z,13240.00
2019-06-20T17:10:06.016Z,13564.00
2019-06-20T17:11:06.009Z,14368.00
2019-06-20T17:12:05.994Z,19264.00
2019-06-20T17:13:05.991Z,13556.00
2019-06-20T17:14:05.965Z,12964.00
2019-06-20T17:15:05.985Z,12920.00
2019-06-20T17:16:05.934Z,18752.00
2019-06-20T17:17:05.925Z,16416.00
2019-06-20T17:18:05.924Z,18496.00
2019-06-20T17:19:06.000Z,16704.00
2019-06-20T17:20:05.881Z,41472.00
2019-06-20T17:21:05.871Z,45440.00